ADDS METAR Data INFO
IDs: Format: Raw Decoded Include TAF

Data at: 1937 UTC 17 Feb 2018

K7N0 171856Z AUTO 18010G15KT 10SM FEW035 SCT045 BKN060 27/18 A3014 RMK AO2 SLP205 T02670178
K7N0 171756Z AUTO 18011G19KT 10SM BKN065 26/18 A3016 RMK AO2 SLP212 T02610178 10261 20200 50004 TSNO
K7N0 171656Z AUTO 19009G15KT 10SM SCT024 26/18 A3018 RMK AO2 SLP220 T02560183
K7N0 171556Z AUTO 18010G17KT 10SM BKN019 23/19 A3017 RMK AO2 SLP215 T02330194
K7N0 171456Z AUTO 21007KT 10SM FEW010 BKN055 23/19 A3015 RMK AO2 SLP208 T02280194 51011
K7N0 171448Z AUTO 22004KT 10SM FEW008 BKN055 22/19 A3015 RMK AO2
K7N0 171426Z AUTO 19006KT 10SM BKN006 22/19 A3013 RMK AO2
K7N0 171408Z AUTO 18006KT 8SM OVC004 21/19 A3013 RMK AO2 CIG 003V007
K7N0 171356Z AUTO 18006KT 7SM OVC002 21/19 A3012 RMK AO2 CIG 002V005 SLP201 T02110194
K7N0 171334Z AUTO 17004KT 3SM BR OVC002 21/19 A3012 RMK AO2
K7N0 171319Z AUTO 18005KT 2 1/2SM BR OVC002 21/19 A3012 RMK AO2 VIS 1 1/4V5
K7N0 171313Z AUTO 16006KT 4SM BR OVC004 21/19 A3012 RMK AO2
K7N0 171256Z AUTO 17005KT 7SM BKN006 OVC013 20/19 A3011 RMK AO2 CIG 004V009 SLP197 T02000189
K7N0 171252Z AUTO 15005KT 7SM SCT006 OVC013 20/19 A3011 RMK AO2
K7N0 171156Z AUTO 18003KT 10SM FEW003 OVC018 20/19 A3012 RMK AO2 SLP198 T02000189 10211 20194 53002
K7N0 171134Z AUTO 19003KT 10SM SCT003 SCT009 OVC018 21/19 A3011 RMK AO2
K7N0 171056Z AUTO 18003KT 10SM BKN003 OVC016 21/19 A3011 RMK AO2 SLP195 T02060189
K7N0 170956Z AUTO 19005KT 5SM BR OVC003 20/19 A3011 RMK AO2 SLP196 T02000189
K7N0 170954Z AUTO 20004KT 4SM BR OVC003 20/19 A3011 RMK AO2
K7N0 170935Z AUTO 21003KT 2SM BR OVC003 20/19 A3011 RMK AO2 VIS 1 3/4V5
K7N0 170856Z AUTO 21003KT 1 1/2SM BR OVC003 20/19 A3011 RMK AO2 VIS 1V2 1/2 SLP196 T02000189 58007
K7N0 170850Z AUTO 20003KT 1 3/4SM BR OVC003 20/19 A3011 RMK AO2 VIS 1V5
K7N0 170818Z AUTO 00000KT 7SM OVC003 20/19 A3012 RMK AO2
K7N0 170756Z AUTO 00000KT 9SM OVC005 20/18 A3012 RMK AO2 CIG 003V007 SLP200 T02000183
K7N0 170713Z AUTO 00000KT 10SM BKN005 20/18 A3013 RMK AO2
K7N0 170656Z AUTO 00000KT 10SM CLR 21/18 A3013 RMK AO2 SLP204 T02060183
K7N0 170556Z AUTO 19005KT 10SM CLR 21/18 A3013 RMK AO2 SLP203 T02110183 10256 20211 50001
K7N0 170456Z AUTO 20006KT 10SM CLR 21/18 A3014 RMK AO2 SLP204 T02110178 402780194
K7N0 170356Z AUTO 20005KT 10SM CLR 22/18 A3013 RMK AO2 SLP204 T02170178
K7N0 170256Z AUTO 19005KT 10SM CLR 23/18 A3013 RMK AO2 SLP202 T02280178 51004
K7N0 170156Z AUTO VRB04KT 10SM CLR 23/17 A3013 RMK AO2 SLP201 T02330172
K7N0 170056Z AUTO 20006KT 10SM CLR 24/17 A3012 RMK AO2 SLP200 T02440167
K7N0 162356Z AUTO VRB06KT 10SM SCT043 BKN060 26/18 A3012 RMK AO2 SLP198 T02560178 10278 20244 53001
K7N0 162256Z AUTO VRB06KT 10SM CLR 27/18 A3011 RMK AO2 SLP195 T02670178
K7N0 162156Z AUTO VRB05KT 10SM CLR 27/17 A3011 RMK AO2 SLP196 T02720172
K7N0 162056Z AUTO 21008KT 10SM FEW070 27/17 A3011 RMK AO2 SLP197 T02720172 56025
K7N0 161956Z AUTO VRB04KT 10SM FEW040 BKN065 27/17 A3013 RMK AO2 SLP203 T02670172
K7N0 161856Z AUTO 27007KT 210V320 10SM FEW032 27/17 A3015 RMK AO2 SLP210 T02670172
K7N0 161756Z AUTO VRB05KT 10SM FEW042 BKN050 24/18 A3019 RMK AO2 SLP222 T02440183 10250 20194 58004
K7N0 161724Z AUTO 30007KT 10SM BKN025 BKN030 BKN040 25/18 A3020 RMK AO2
K7N0 161656Z AUTO VRB06G14KT 10SM SCT021 SCT030 BKN038 24/19 A3021 RMK AO2 SLP230 T02440189
K7N0 161638Z AUTO 24009KT 10SM FEW016 SCT022 OVC032 24/19 A3022 RMK AO2
K7N0 161556Z AUTO 21005KT 10SM OVC028 22/19 A3021 RMK AO2 SLP231 T02170194
K7N0 161538Z AUTO 21005KT 10SM FEW006 OVC026 21/19 A3021 RMK AO2
K7N0 161514Z AUTO VRB03KT 10SM BKN006 OVC022 21/19 A3021 RMK AO2 CIG 003V008
K7N0 161456Z AUTO 22004KT 10SM OVC002 21/19 A3020 RMK AO2 SLP226 T02060194 51016
K7N0 161427Z AUTO 22004KT 3SM BR OVC002 20/19 A3019 RMK AO2
K7N0 161356Z AUTO 00000KT 1 1/4SM BR OVC002 19/19 A3018 RMK AO2 VIS 1/2V2 SLP221 T01940189
K7N0 161341Z AUTO VRB03KT 1 1/4SM BR OVC002 19/19 A3018 RMK AO2 VIS 1/2V4
K7N0 161313Z AUTO 18004KT 3/4SM BR OVC002 19/19 A3016 RMK AO2 VIS 1/2V1 1/4 RVRNO
K7N0 161256Z AUTO 19005KT 1/4SM FG OVC002 19/19 A3015 RMK AO2 SLP210 T01940189 RVRNO
K7N0 161231Z AUTO 18005KT 3/4SM BR OVC002 19/19 A3015 RMK AO2 RVRNO
K7N0 161221Z AUTO 19004KT 1 1/4SM BR OVC002 19/19 A3015 RMK AO2
K7N0 161156Z AUTO 19004KT 3/4SM BR OVC002 19/19 A3015 RMK AO2 SLP208 T01940189 10211 20194 51005 RVRNO
K7N0 161149Z AUTO 19004KT 3/4SM BR OVC002 19/19 A3014 RMK AO2 RVRNO
K7N0 161123Z AUTO 18005KT 1/2SM FG OVC002 20/19 A3014 RMK AO2 RVRNO
K7N0 161106Z AUTO 19004KT 3/4SM BR OVC002 20/19 A3014 RMK AO2 RVRNO
K7N0 161056Z AUTO VRB03KT 1 1/4SM BR OVC002 20/19 A3014 RMK AO2 VIS 3/4V3 SLP206 T02000189
K7N0 161020Z AUTO 19004KT 1 1/2SM BR OVC002 20/19 A3014 RMK AO2
K7N0 160956Z AUTO 19004KT 2 1/2SM BR OVC002 20/19 A3013 RMK AO2 VIS 1 1/2V4 SLP203 T02000194
K7N0 160856Z AUTO 21003KT 3SM BR OVC002 20/19 A3014 RMK AO2 SLP204 T02000194 53000
K7N0 160839Z AUTO 21003KT 9SM BKN004 OVC020 21/19 A3014 RMK AO2
K7N0 160820Z AUTO 20004KT 10SM FEW004 BKN020 21/19 A3014 RMK AO2
K7N0 160756Z AUTO 19006KT 10SM FEW018 21/19 A3013 RMK AO2 SLP203 T02110194
K7N0 160753Z AUTO 18006KT 10SM FEW018 21/19 A3013 RMK AO2